Time;durP1;ratioP1;P1;durP2;ratioP2;P2;SDS_P1;SDS_P2;PMS_P1;PMS_P2;Temp;Humidity;BMP_temperature;BMP_pressure;BME280_temperature;BME280_humidity;BME280_pressure;Samples;Min_cycle;Max_cycle;Signal;HPM_P1;HPM_P2
2021/10/21 00:00:15;;;;;;;6.15;4.18;;;;;;;11.40;100.00;94931.13;1032557;28;20495;-51
2021/10/21 00:00:47;;;;;;;7.95;4.72;;;;;;;11.40;100.00;94920.63;1032741;28;20050;-52
2021/10/21 00:01:18;;;;;;;5.95;4.03;;;;;;;11.41;100.00;94924.06;1028593;28;20054;-53
2021/10/21 00:01:49;;;;;;;7.40;4.15;;;;;;;11.39;100.00;94926.84;1029435;28;20432;-52
2021/10/21 00:02:19;;;;;;;5.07;3.85;;;;;;;11.41;100.00;94927.53;1032925;28;20026;-53
2021/10/21 00:02:50;;;;;;;6.90;3.92;;;;;;;11.41;100.00;94924.91;1028513;28;20054;-52
2021/10/21 00:03:20;;;;;;;6.25;4.03;;;;;;;11.42;100.00;94923.94;1028939;28;20055;-52
2021/10/21 00:03:52;;;;;;;6.15;4.25;;;;;;;11.43;100.00;94909.88;1028503;28;20070;-51
2021/10/21 00:04:24;;;;;;;6.75;4.15;;;;;;;11.48;100.00;94906.81;1036564;28;20025;-52
2021/10/21 00:04:55;;;;;;;5.97;4.28;;;;;;;11.47;100.00;94908.63;1036773;28;20028;-53
2021/10/21 00:05:25;;;;;;;6.53;3.90;;;;;;;11.40;100.00;94918.00;1036453;28;20030;-51
2021/10/21 00:05:57;;;;;;;7.10;4.38;;;;;;;11.32;100.00;94922.28;1032515;28;20027;-52
2021/10/21 00:06:28;;;;;;;7.22;4.55;;;;;;;11.24;100.00;94926.44;1032805;28;20056;-52
2021/10/21 00:06:59;;;;;;;5.43;3.90;;;;;;;11.27;100.00;94920.91;1033203;28;20018;-52
2021/10/21 00:07:30;;;;;;;6.07;4.35;;;;;;;11.29;100.00;94928.63;1033417;28;20496;-52
2021/10/21 00:08:00;;;;;;;5.95;4.22;;;;;;;11.39;100.00;94929.47;1041097;28;20507;-51
2021/10/21 00:08:31;;;;;;;7.30;4.00;;;;;;;11.41;100.00;94924.06;1032643;28;20061;-53
2021/10/21 00:09:02;;;;;;;6.88;3.95;;;;;;;11.42;100.00;94926.56;1032490;28;20492;-52
2021/10/21 00:09:33;;;;;;;7.28;4.60;;;;;;;11.43;100.00;94928.22;1032710;28;20022;-51
2021/10/21 00:10:05;;;;;;;5.13;3.85;;;;;;;11.44;100.00;94927.25;1028689;28;20455;-52
2021/10/21 00:10:35;;;;;;;6.35;3.67;;;;;;;11.45;100.00;94921.06;1028730;28;20018;-53
2021/10/21 00:11:06;;;;;;;5.80;4.05;;;;;;;11.42;100.00;94918.69;1028521;28;20483;-51
2021/10/21 00:11:37;;;;;;;5.30;3.53;;;;;;;11.43;100.00;94904.63;1029193;28;20007;-51
2021/10/21 00:12:07;;;;;;;7.00;4.07;;;;;;;11.43;100.00;94906.41;1032571;28;20046;-52
2021/10/21 00:12:38;;;;;;;5.85;3.53;;;;;;;11.46;100.00;94912.19;1028573;28;20532;-51
2021/10/21 00:13:09;;;;;;;5.53;4.00;;;;;;;11.48;100.00;94912.06;1028303;28;20073;-52
2021/10/21 00:13:40;;;;;;;6.07;4.00;;;;;;;11.42;100.00;94916.06;1036697;28;20526;-52
2021/10/21 00:14:10;;;;;;;5.05;3.63;;;;;;;11.40;100.00;94904.88;1032258;28;20023;-52
2021/10/21 00:14:41;;;;;;;5.97;4.00;;;;;;;11.47;100.00;94903.38;1028474;28;20035;-52
2021/10/21 00:15:12;;;;;;;6.90;3.75;;;;;;;11.53;100.00;94893.31;1028350;28;20453;-52
2021/10/21 00:15:43;;;;;;;5.43;4.00;;;;;;;11.54;100.00;94890.50;1028633;28;20015;-53
2021/10/21 00:16:14;;;;;;;5.70;3.58;;;;;;;11.53;100.00;94891.50;1028959;28;20031;-52
2021/10/21 00:16:44;;;;;;;8.23;3.75;;;;;;;11.58;100.00;94885.81;1033097;28;20385;-52
2021/10/21 00:17:15;;;;;;;8.65;4.68;;;;;;;11.65;100.00;94882.50;1040968;28;20092;-51
2021/10/21 00:17:45;;;;;;;6.15;4.50;;;;;;;11.61;100.00;94883.75;1036588;28;20089;-53
2021/10/21 00:18:16;;;;;;;6.20;4.13;;;;;;;11.64;100.00;94883.47;1032417;28;20027;-52
2021/10/21 00:18:49;;;;;;;6.75;4.32;;;;;;;11.64;100.00;94880.84;1032478;28;20061;-52
2021/10/21 00:19:19;;;;;;;5.15;3.85;;;;;;;11.64;100.00;94886.09;1028585;28;20073;-52
2021/10/21 00:19:50;;;;;;;6.20;4.43;;;;;;;11.60;100.00;94886.50;1028532;28;20601;-52
2021/10/21 00:20:21;;;;;;;7.18;3.85;;;;;;;11.45;100.00;94876.47;1029462;28;20022;-51
2021/10/21 00:20:52;;;;;;;5.20;3.85;;;;;;;11.55;100.00;94886.13;1032482;28;20037;-53
2021/10/21 00:21:22;;;;;;;5.13;3.58;;;;;;;11.51;100.00;94885.56;1032572;28;20523;-52
2021/10/21 00:21:53;;;;;;;5.88;3.78;;;;;;;11.47;100.00;94885.00;1028659;28;20102;-52
2021/10/21 00:22:24;;;;;;;5.47;3.85;;;;;;;11.53;100.00;94875.75;1024613;28;20166;-52
2021/10/21 00:22:55;;;;;;;5.60;3.90;;;;;;;11.54;100.00;94876.56;1028520;28;20026;-53
2021/10/21 00:23:25;;;;;;;5.70;3.80;;;;;;;11.52;100.00;94873.28;1028776;28;20492;-51
2021/10/21 00:23:56;;;;;;;5.47;3.70;;;;;;;11.47;100.00;94865.84;1032967;28;20062;-54
2021/10/21 00:24:27;;;;;;;6.97;4.30;;;;;;;11.49;100.00;94856.03;1040811;28;20052;-52
2021/10/21 00:24:58;;;;;;;5.00;3.45;;;;;;;11.45;100.00;94860.72;1037086;28;20104;-52
2021/10/21 00:25:29;;;;;;;6.25;3.70;;;;;;;11.46;100.00;94859.75;1036715;28;20026;-53
2021/10/21 00:26:06;;;;;;;7.03;3.92;;;;;;;11.47;100.00;94857.97;1036332;28;20029;-51
2021/10/21 00:26:37;;;;;;;5.47;3.78;;;;;;;11.45;100.00;94859.91;1028662;28;20042;-51
2021/10/21 00:27:07;;;;;;;5.45;3.50;;;;;;;11.50;100.00;94857.66;1032689;28;20161;-52
2021/10/21 00:27:38;;;;;;;7.07;3.90;;;;;;;11.48;100.00;94867.47;1033684;28;20018;-52
2021/10/21 00:28:09;;;;;;;6.68;4.18;;;;;;;11.43;100.00;94873.16;1033601;28;20018;-52
2021/10/21 00:28:39;;;;;;;8.10;3.38;;;;;;;11.48;100.00;94868.28;1028656;28;20368;-52
2021/10/21 00:29:10;;;;;;;5.70;3.53;;;;;;;11.50;100.00;94869.97;1028454;28;20522;-52
2021/10/21 00:29:41;;;;;;;5.60;3.80;;;;;;;11.53;100.00;94865.25;1032593;28;20042;-52
2021/10/21 00:30:12;;;;;;;5.53;3.63;;;;;;;11.54;100.00;94871.34;1028737;28;20540;-51
2021/10/21 00:30:43;;;;;;;6.15;3.88;;;;;;;11.50;100.00;94864.72;1028437;28;20110;-52
2021/10/21 00:31:14;;;;;;;6.45;3.92;;;;;;;11.44;100.00;94866.91;1032225;28;20022;-52
2021/10/21 00:31:46;;;;;;;5.97;3.78;;;;;;;11.45;100.00;94863.34;1036505;28;20032;-52
2021/10/21 00:32:17;;;;;;;5.22;3.67;;;;;;;11.42;100.00;94866.25;1040419;28;20108;-52
2021/10/21 00:32:47;;;;;;;5.80;3.95;;;;;;;11.37;100.00;94868.44;1036515;28;20030;-52
2021/10/21 00:33:18;;;;;;;5.93;3.70;;;;;;;11.36;100.00;94869.44;1028894;28;20120;-52
2021/10/21 00:33:49;;;;;;;4.75;3.50;;;;;;;11.37;100.00;94873.69;1028585;28;20057;-52
2021/10/21 00:34:19;;;;;;;6.35;3.65;;;;;;;11.42;100.00;94861.00;1028692;28;20029;-52
2021/10/21 00:34:52;;;;;;;5.78;3.65;;;;;;;11.46;100.00;94861.53;1024937;28;20520;-53
2021/10/21 00:35:23;;;;;;;11.00;4.13;;;;;;;11.46;100.00;94857.13;1021315;28;20024;-52
2021/10/21 00:35:54;;;;;;;7.28;3.70;;;;;;;11.45;100.00;94852.84;1024537;28;20023;-52
2021/10/21 00:36:24;;;;;;;4.55;3.38;;;;;;;11.46;100.00;94856.28;1025415;28;20023;-51
2021/10/21 00:36:55;;;;;;;6.25;4.05;;;;;;;11.51;100.00;94861.13;1028990;28;20034;-52
2021/10/21 00:37:26;;;;;;;6.55;3.85;;;;;;;11.51;100.00;94855.88;1032537;28;20048;-52
2021/10/21 00:37:56;;;;;;;5.05;3.50;;;;;;;11.51;100.00;94855.88;1024609;29;20095;-53
2021/10/21 00:38:27;;;;;;;5.47;3.53;;;;;;;11.48;100.00;94862.22;1024352;29;20073;-52
2021/10/21 00:38:58;;;;;;;7.78;3.47;;;;;;;11.49;100.00;94856.03;1028914;28;20130;-52
2021/10/21 00:39:29;;;;;;;6.53;4.22;;;;;;;11.45;100.00;94855.47;1028702;28;20023;-52
2021/10/21 00:39:59;;;;;;;5.45;3.80;;;;;;;11.43;100.00;94854.78;1028565;28;20022;-52
2021/10/21 00:40:30;;;;;;;4.80;3.47;;;;;;;11.47;100.00;94850.91;1032693;28;20449;-51
2021/10/21 00:41:01;;;;;;;5.93;3.53;;;;;;;11.53;100.00;94848.72;1032475;28;20022;-51
2021/10/21 00:41:32;;;;;;;7.53;3.50;;;;;;;11.53;100.00;94851.34;1032598;28;20022;-51
2021/10/21 00:42:04;;;;;;;5.25;3.88;;;;;;;11.47;100.00;94848.28;1036952;28;20020;-51
2021/10/21 00:42:34;;;;;;;5.70;3.50;;;;;;;11.43;100.00;94846.06;1036223;28;20244;-52
2021/10/21 00:43:05;;;;;;;5.38;3.67;;;;;;;11.42;100.00;94845.25;1028400;28;20018;-51
2021/10/21 00:43:40;;;;;;;5.43;3.63;;;;;;;11.51;100.00;94837.53;1028480;28;20554;-52
2021/10/21 00:44:12;;;;;;;5.63;3.55;;;;;;;11.47;100.00;94832.56;1028927;28;20102;-51
2021/10/21 00:44:44;;;;;;;5.55;3.80;;;;;;;11.47;100.00;94831.75;1029503;28;20098;-52
2021/10/21 00:45:14;;;;;;;6.40;3.90;;;;;;;11.42;100.00;94831.31;1032386;28;20022;-52
2021/10/21 00:45:45;;;;;;;5.65;3.70;;;;;;;11.42;100.00;94829.53;1032789;28;20019;-52
2021/10/21 00:46:15;;;;;;;5.18;3.67;;;;;;;11.39;100.00;94827.19;1035947;28;20022;-52
2021/10/21 00:46:46;;;;;;;6.55;3.97;;;;;;;11.42;100.00;94824.28;1036060;28;20036;-51
2021/10/21 00:47:17;;;;;;;5.55;3.47;;;;;;;11.40;100.00;94828.00;1032305;28;20022;-52
2021/10/21 00:47:48;;;;;;;6.28;3.78;;;;;;;11.46;100.00;94827.44;1032857;28;20059;-51
2021/10/21 00:48:18;;;;;;;6.40;3.88;;;;;;;11.49;100.00;94824.56;1032866;28;20040;-53
2021/10/21 00:48:49;;;;;;;5.25;3.70;;;;;;;11.47;100.00;94824.69;1028582;28;20042;-52
2021/10/21 00:49:20;;;;;;;6.00;3.95;;;;;;;11.48;100.00;94828.13;1032733;28;20090;-52
2021/10/21 00:49:51;;;;;;;4.60;3.67;;;;;;;11.46;100.00;94830.88;1028944;28;20389;-53
2021/10/21 00:50:21;;;;;;;5.20;3.47;;;;;;;11.48;100.00;94831.56;1036644;28;20108;-52
2021/10/21 00:50:52;;;;;;;5.57;3.67;;;;;;;11.57;100.00;94822.03;1036322;28;20041;-52
2021/10/21 00:51:23;;;;;;;6.75;3.50;;;;;;;11.59;100.00;94817.47;1032758;28;20027;-53
2021/10/21 00:51:54;;;;;;;6.55;3.90;;;;;;;11.57;100.00;94829.91;1036933;28;20021;-52
2021/10/21 00:52:24;;;;;;;9.50;4.15;;;;;;;11.57;100.00;94834.34;1032642;28;20185;-52
2021/10/21 00:52:55;;;;;;;7.50;4.05;;;;;;;11.57;100.00;94836.97;1028494;28;20094;-52
2021/10/21 00:53:28;;;;;;;5.50;3.28;;;;;;;11.57;100.00;94835.16;1032995;28;20022;-53
2021/10/21 00:53:59;;;;;;;5.07;3.35;;;;;;;11.52;100.00;94839.16;1033401;28;20057;-52
2021/10/21 00:54:30;;;;;;;6.88;3.85;;;;;;;11.51;100.00;94840.16;1037552;28;20017;-51
2021/10/21 00:55:00;;;;;;;6.75;3.63;;;;;;;11.47;100.00;94835.19;1036622;28;20086;-51
2021/10/21 00:55:32;;;;;;;5.28;3.40;;;;;;;11.43;100.00;94840.81;1032760;28;20448;-53
2021/10/21 00:56:03;;;;;;;4.55;3.33;;;;;;;11.39;100.00;94832.44;1024840;29;20066;-52
2021/10/21 00:56:34;;;;;;;6.65;3.88;;;;;;;11.42;100.00;94826.91;1024667;29;20527;-52
2021/10/21 00:57:06;;;;;;;6.43;3.60;;;;;;;11.40;100.00;94828.00;1028564;28;20123;-52
2021/10/21 00:57:37;;;;;;;4.78;3.50;;;;;;;11.40;100.00;94828.00;1032807;28;20025;-52
2021/10/21 00:58:08;;;;;;;5.75;3.65;;;;;;;11.39;100.00;94832.44;1028471;28;20023;-52
2021/10/21 00:58:38;;;;;;;6.95;4.22;;;;;;;11.29;100.00;94826.38;1028365;28;20471;-52
2021/10/21 00:59:09;;;;;;;7.85;3.58;;;;;;;11.31;100.00;94834.91;1028033;28;20018;-51
2021/10/21 00:59:41;;;;;;;6.57;3.38;;;;;;;11.37;100.00;94830.91;1028061;28;20489;-53
2021/10/21 01:00:12;;;;;;;5.53;3.85;;;;;;;11.37;100.00;94829.09;1032369;28;20046;-51
2021/10/21 01:00:46;;;;;;;5.82;3.80;;;;;;;11.36;100.00;94821.41;1028656;28;20019;-52
2021/10/21 01:01:17;;;;;;;4.63;3.55;;;;;;;11.33;100.00;94824.28;1028688;28;20026;-51
2021/10/21 01:01:48;;;;;;;5.85;4.05;;;;;;;11.36;100.00;94816.16;1032589;28;20056;-50
2021/10/21 01:02:19;;;;;;;4.88;3.08;;;;;;;11.36;100.00;94818.78;1028495;28;20022;-52
2021/10/21 01:02:49;;;;;;;5.47;3.40;;;;;;;11.35;100.00;94820.56;1028473;28;20041;-53
2021/10/21 01:03:20;;;;;;;6.25;3.60;;;;;;;11.35;100.00;94822.34;1032520;28;20113;-52
2021/10/21 01:03:51;;;;;;;6.55;3.80;;;;;;;11.32;100.00;94820.00;1032743;28;20018;-53
2021/10/21 01:04:22;;;;;;;6.80;3.42;;;;;;;11.26;100.00;94829.25;1032809;28;20460;-52
2021/10/21 01:04:53;;;;;;;6.22;3.72;;;;;;;11.18;100.00;94824.72;1033149;28;20022;-52
2021/10/21 01:05:23;;;;;;;5.75;4.22;;;;;;;11.22;100.00;94820.88;1032849;28;20049;-52
2021/10/21 01:05:54;;;;;;;4.90;3.40;;;;;;;11.24;100.00;94828.56;1036642;28;20475;-51
2021/10/21 01:06:25;;;;;;;5.57;3.50;;;;;;;11.25;100.00;94825.00;1032642;28;20018;-52
2021/10/21 01:06:56;;;;;;;5.07;3.67;;;;;;;11.19;100.00;94825.56;1032767;28;20056;-52
2021/10/21 01:07:28;;;;;;;5.65;3.47;;;;;;;11.14;100.00;94820.72;1032451;28;20137;-51
2021/10/21 01:07:59;;;;;;;6.50;3.90;;;;;;;11.13;100.00;94816.47;1028673;28;20019;-51
2021/10/21 01:08:29;;;;;;;5.35;3.50;;;;;;;11.19;100.00;94812.44;1029645;28;20023;-51
2021/10/21 01:09:01;;;;;;;10.20;4.32;;;;;;;11.13;100.00;94820.84;1036726;28;20032;-51
2021/10/21 01:09:32;;;;;;;5.75;3.63;;;;;;;11.08;100.00;94824.72;1032416;28;20027;-51
2021/10/21 01:10:06;;;;;;;6.10;3.78;;;;;;;11.12;100.00;94817.41;1028081;28;20444;-52
2021/10/21 01:10:37;;;;;;;6.78;3.90;;;;;;;11.09;100.00;94817.69;1028107;28;20420;-52
2021/10/21 01:11:08;;;;;;;5.47;3.33;;;;;;;11.07;100.00;94802.13;1033526;28;20018;-53
2021/10/21 01:11:41;;;;;;;5.38;3.55;;;;;;;10.98;100.00;94795.09;1028974;28;20027;-52
2021/10/21 01:12:12;;;;;;;5.05;3.72;;;;;;;10.96;100.00;94793.53;1035851;28;20084;-52
2021/10/21 01:12:42;;;;;;;4.85;3.47;;;;;;;10.92;100.00;94798.25;1032478;28;20113;-52
2021/10/21 01:13:13;;;;;;;4.55;3.40;;;;;;;10.96;100.00;94815.38;1029305;28;20580;-53
2021/10/21 01:13:44;;;;;;;5.93;3.33;;;;;;;11.01;100.00;94818.38;1024255;29;20024;-52
2021/10/21 01:14:15;;;;;;;5.55;3.65;;;;;;;10.97;100.00;94806.53;1024649;29;20062;-52
2021/10/21 01:14:47;;;;;;;5.93;3.53;;;;;;;10.95;100.00;94800.59;1024737;28;20055;-53
2021/10/21 01:15:21;;;;;;;7.47;3.83;;;;;;;10.87;100.00;94795.22;1028382;28;20137;-52
2021/10/21 01:16:10;;;;;;;6.97;3.45;;;;;;;10.83;100.00;94788.59;1028776;28;20023;-52
2021/10/21 01:16:41;;;;;;;5.75;3.75;;;;;;;10.81;100.00;94788.75;1028584;28;20421;-52
2021/10/21 01:17:14;;;;;;;5.38;3.42;;;;;;;10.78;100.00;94793.44;1032431;28;20110;-52
2021/10/21 01:17:46;;;;;;;5.32;3.70;;;;;;;10.82;100.00;94797.44;1028362;28;20019;-51
2021/10/21 01:18:16;;;;;;;5.47;3.72;;;;;;;10.87;100.00;94805.72;1032532;28;20018;-51
2021/10/21 01:18:47;;;;;;;5.68;3.33;;;;;;;10.85;100.00;94807.66;1029702;28;20113;-52
2021/10/21 01:19:21;;;;;;;6.25;4.03;;;;;;;10.84;100.00;94822.50;1032526;28;20054;-52
2021/10/21 01:19:52;;;;;;;4.75;3.50;;;;;;;10.86;100.00;94811.91;1032199;28;20026;-53
2021/10/21 01:20:23;;;;;;;4.72;3.45;;;;;;;10.91;100.00;94817.56;1032995;28;20030;-53
2021/10/21 01:20:54;;;;;;;5.82;3.60;;;;;;;10.85;100.00;94808.47;1033413;28;20022;-53
2021/10/21 01:21:24;;;;;;;6.43;4.25;;;;;;;10.83;100.00;94807.78;1028712;28;20034;-52
2021/10/21 01:21:57;;;;;;;5.65;4.18;;;;;;;10.83;100.00;94801.69;1028640;28;20057;-52
2021/10/21 01:22:27;;;;;;;5.40;3.50;;;;;;;10.77;100.00;94799.63;1024368;29;20046;-51
2021/10/21 01:22:58;;;;;;;6.32;3.72;;;;;;;10.77;100.00;94797.81;1028432;28;20680;-51
2021/10/21 01:23:29;;;;;;;4.85;3.30;;;;;;;10.79;100.00;94795.91;1028406;28;20050;-52
2021/10/21 01:23:59;;;;;;;6.18;3.42;;;;;;;10.79;100.00;94798.53;1032205;28;20022;-52
2021/10/21 01:24:30;;;;;;;5.90;3.47;;;;;;;10.77;100.00;94786.53;1036731;28;20090;-51
2021/10/21 01:25:01;;;;;;;4.70;3.30;;;;;;;10.86;100.00;94799.63;1036431;28;20018;-53
2021/10/21 01:25:31;;;;;;;5.10;3.63;;;;;;;10.82;100.00;94808.72;1032397;28;20018;-53
2021/10/21 01:26:02;;;;;;;4.55;3.50;;;;;;;10.85;100.00;94821.56;1028327;28;20018;-53
2021/10/21 01:26:33;;;;;;;5.28;3.63;;;;;;;10.84;100.00;94814.66;1028633;28;20026;-53
2021/10/21 01:27:04;;;;;;;4.57;3.25;;;;;;;10.85;100.00;94812.88;1032523;28;20022;-52
2021/10/21 01:27:35;;;;;;;6.97;4.03;;;;;;;10.85;100.00;94812.88;1032548;28;20037;-52
2021/10/21 01:28:06;;;;;;;5.97;3.70;;;;;;;10.84;100.00;94796.31;1028496;28;20121;-51
2021/10/21 01:28:37;;;;;;;4.88;3.33;;;;;;;10.84;100.00;94785.84;1028402;28;20285;-52
2021/10/21 01:29:08;;;;;;;6.05;4.00;;;;;;;10.84;100.00;94790.25;1028391;28;20539;-52
2021/10/21 01:29:39;;;;;;;6.28;3.42;;;;;;;10.84;100.00;94792.88;1028610;28;20034;-53
2021/10/21 01:30:17;;;;;;;5.15;3.40;;;;;;;10.92;100.00;94786.94;1036397;28;20123;-52
2021/10/21 01:30:47;;;;;;;4.95;3.47;;;;;;;10.96;100.00;94791.78;1036519;28;20408;-52
2021/10/21 01:31:18;;;;;;;6.40;3.83;;;;;;;10.97;100.00;94789.97;1032643;28;20030;-52
2021/10/21 01:31:49;;;;;;;5.53;3.63;;;;;;;10.98;100.00;94789.00;1032661;28;20520;-53
2021/10/21 01:32:23;;;;;;;5.38;3.50;;;;;;;11.02;100.00;94793.84;1032504;28;20034;-52
2021/10/21 01:32:56;;;;;;;7.70;3.55;;;;;;;11.07;100.00;94796.03;1037022;28;20040;-52
2021/10/21 01:33:27;;;;;;;5.32;3.65;;;;;;;11.02;100.00;94793.84;1040572;28;20013;-52
2021/10/21 01:33:58;;;;;;;5.40;3.67;;;;;;;11.01;100.00;94800.03;1028422;28;20019;-52
2021/10/21 01:34:29;;;;;;;12.25;4.15;;;;;;;11.05;100.00;94790.91;1024182;29;20019;-51
2021/10/21 01:34:59;;;;;;;4.88;3.20;;;;;;;11.09;100.00;94787.06;1036920;28;20018;-51
2021/10/21 01:35:30;;;;;;;7.32;4.03;;;;;;;11.00;100.00;94780.03;1036866;28;20021;-54
2021/10/21 01:36:01;;;;;;;5.57;3.60;;;;;;;11.02;100.00;94785.97;1032606;28;20010;-52
2021/10/21 01:36:32;;;;;;;4.43;3.15;;;;;;;11.00;100.00;94782.66;1032912;28;20050;-51
2021/10/21 01:37:03;;;;;;;6.72;3.55;;;;;;;11.01;100.00;94791.34;1036711;28;20427;-53
2021/10/21 01:37:33;;;;;;;6.43;3.35;;;;;;;11.03;100.00;94785.00;1032849;28;20012;-53
2021/10/21 01:38:04;;;;;;;4.93;3.55;;;;;;;11.10;100.00;94790.50;1032743;28;20456;-51
2021/10/21 01:38:35;;;;;;;4.65;3.10;;;;;;;11.12;100.00;94796.44;1032392;28;20046;-52
2021/10/21 01:39:08;;;;;;;8.07;3.63;;;;;;;11.13;100.00;94799.88;1032365;28;20010;-52
2021/10/21 01:39:39;;;;;;;6.72;3.65;;;;;;;11.09;100.00;94800.19;1028563;28;20023;-51
2021/10/21 01:40:11;;;;;;;4.53;3.30;;;;;;;11.09;100.00;94794.09;1032658;28;20093;-52
2021/10/21 01:40:42;;;;;;;5.32;3.40;;;;;;;11.07;100.00;94798.66;1032409;28;20121;-51
2021/10/21 01:41:12;;;;;;;6.13;3.65;;;;;;;11.12;100.00;94793.00;1033120;28;20516;-52
2021/10/21 01:41:43;;;;;;;5.03;3.47;;;;;;;11.11;100.00;94792.16;1032350;28;20089;-51
2021/10/21 01:42:14;;;;;;;5.72;3.90;;;;;;;11.12;100.00;94793.00;1024406;29;20106;-51
2021/10/21 01:42:44;;;;;;;6.43;3.63;;;;;;;11.07;100.00;94781.16;1028125;28;20094;-50
2021/10/21 01:43:15;;;;;;;5.75;3.58;;;;;;;11.02;100.00;94778.09;1032272;28;20264;-49
2021/10/21 01:43:46;;;;;;;5.38;3.50;;;;;;;10.96;100.00;94780.44;1028357;28;20026;-50
2021/10/21 01:44:17;;;;;;;5.35;3.83;;;;;;;10.97;100.00;94775.06;1024622;29;20043;-50
2021/10/21 01:44:48;;;;;;;10.57;4.13;;;;;;;10.98;100.00;94778.50;1032504;28;20496;-50
2021/10/21 01:45:21;;;;;;;5.47;3.35;;;;;;;10.98;100.00;94768.03;1028419;28;20011;-49
2021/10/21 01:45:53;;;;;;;6.38;3.45;;;;;;;10.99;100.00;94767.06;1028567;28;20093;-49
2021/10/21 01:46:24;;;;;;;6.82;3.75;;;;;;;11.01;100.00;94765.97;1028648;28;20047;-51
2021/10/21 01:46:55;;;;;;;5.10;3.70;;;;;;;11.05;100.00;94764.72;1033949;28;20101;-50
2021/10/21 01:47:25;;;;;;;5.85;3.90;;;;;;;11.05;100.00;94762.09;1033145;28;20010;-49
2021/10/21 01:47:57;;;;;;;4.90;3.03;;;;;;;11.05;100.00;94756.84;1036764;28;20014;-51
2021/10/21 01:48:27;;;;;;;6.07;3.40;;;;;;;11.05;100.00;94748.16;1032666;28;20101;-49
2021/10/21 01:48:58;;;;;;;4.93;3.35;;;;;;;11.04;100.00;94760.44;1029197;28;20017;-51
2021/10/21 01:49:29;;;;;;;5.65;3.33;;;;;;;11.06;100.00;94755.06;1028479;28;20066;-49
2021/10/21 01:50:00;;;;;;;5.88;3.60;;;;;;;11.11;100.00;94754.63;1024476;28;20011;-50
2021/10/21 01:50:30;;;;;;;5.35;3.40;;;;;;;11.12;100.00;94751.06;1028256;28;20046;-49
2021/10/21 01:51:01;;;;;;;5.25;4.00;;;;;;;11.12;100.00;94748.44;1032282;28;20014;-51
2021/10/21 01:51:33;;;;;;;5.00;3.53;;;;;;;11.13;100.00;94753.53;1032637;28;20010;-51
2021/10/21 01:52:04;;;;;;;5.97;3.22;;;;;;;11.09;100.00;94746.91;1024647;28;20011;-50
2021/10/21 01:52:35;;;;;;;4.80;3.55;;;;;;;11.09;100.00;94742.50;1032319;28;20015;-51
2021/10/21 01:53:05;;;;;;;5.78;3.63;;;;;;;11.09;100.00;94753.00;1028281;28;20110;-49
2021/10/21 01:53:36;;;;;;;4.78;3.22;;;;;;;11.07;100.00;94759.31;1029370;28;20060;-51
2021/10/21 01:54:07;;;;;;;5.25;3.80;;;;;;;11.04;100.00;94759.63;1028610;28;20053;-50
2021/10/21 01:54:37;;;;;;;6.22;3.65;;;;;;;11.07;100.00;94759.31;1033063;28;20026;-51
2021/10/21 01:55:08;;;;;;;6.28;3.42;;;;;;;11.10;100.00;94753.81;1032425;28;20061;-51
2021/10/21 01:55:40;;;;;;;7.85;3.63;;;;;;;11.04;100.00;94757.81;1028669;28;20022;-50
2021/10/21 01:56:11;;;;;;;6.07;3.08;;;;;;;11.05;100.00;94758.63;1032499;28;20023;-51
2021/10/21 01:56:42;;;;;;;4.40;3.35;;;;;;;11.01;100.00;94763.34;1033102;28;20088;-50
2021/10/21 01:57:13;;;;;;;5.55;3.42;;;;;;;11.02;100.00;94761.56;1032518;28;20085;-50
2021/10/21 01:57:44;;;;;;;5.93;3.70;;;;;;;10.97;100.00;94766.38;1033218;28;20504;-51
2021/10/21 01:58:14;;;;;;;10.88;3.92;;;;;;;10.94;100.00;94769.28;1040898;28;20112;-51
2021/10/21 01:58:45;;;;;;;6.07;3.40;;;;;;;10.98;100.00;94766.25;1040753;28;20025;-51
2021/10/21 01:59:16;;;;;;;6.70;3.67;;;;;;;11.01;100.00;94776.44;1040647;28;20566;-51
2021/10/21 01:59:47;;;;;;;5.03;3.88;;;;;;;11.03;100.00;94790.22;1036682;28;20049;-50
2021/10/21 02:00:19;;;;;;;6.00;3.58;;;;;;;11.01;100.00;94791.34;1033049;28;20037;-50
2021/10/21 02:00:50;;;;;;;5.60;3.67;;;;;;;10.99;100.00;94793.28;1036889;28;20026;-51
2021/10/21 02:01:20;;;;;;;7.13;3.65;;;;;;;10.98;100.00;94792.47;1032430;28;20105;-51
2021/10/21 02:01:51;;;;;;;5.68;3.70;;;;;;;10.98;100.00;94797.72;1028828;28;20458;-50
2021/10/21 02:02:22;;;;;;;6.55;4.28;;;;;;;10.97;100.00;94795.22;1028951;28;20019;-50
2021/10/21 02:02:53;;;;;;;5.82;3.63;;;;;;;10.96;100.00;94789.16;1032379;28;20516;-51
2021/10/21 02:03:23;;;;;;;6.30;4.03;;;;;;;10.91;100.00;94786.13;1032716;28;20035;-51
2021/10/21 02:03:54;;;;;;;5.15;3.25;;;;;;;10.94;100.00;94782.38;1032465;28;20046;-51
2021/10/21 02:04:25;;;;;;;6.15;3.63;;;;;;;10.92;100.00;94787.75;1032677;28;20093;-52
2021/10/21 02:04:55;;;;;;;4.93;3.20;;;;;;;10.90;100.00;94781.81;1028647;28;20374;-49
2021/10/21 02:05:26;;;;;;;5.90;3.20;;;;;;;10.92;100.00;94784.31;1024780;28;20023;-51
2021/10/21 02:05:57;;;;;;;5.45;3.78;;;;;;;10.92;100.00;94777.28;1028375;28;20595;-50
2021/10/21 02:06:28;;;;;;;4.60;3.08;;;;;;;10.92;100.00;94772.03;1028893;28;20493;-50
2021/10/21 02:06:58;;;;;;;5.60;3.63;;;;;;;10.93;100.00;94778.94;1028934;28;20023;-50
2021/10/21 02:07:29;;;;;;;5.10;3.28;;;;;;;10.96;100.00;94780.44;1028838;28;20042;-50
2021/10/21 02:07:59;;;;;;;8.52;3.30;;;;;;;10.96;100.00;94775.19;1028683;28;20025;-50
2021/10/21 02:08:30;;;;;;;6.88;3.42;;;;;;;10.94;100.00;94779.75;1029074;28;20494;-51
2021/10/21 02:09:01;;;;;;;4.90;3.47;;;;;;;10.96;100.00;94778.69;1032560;28;20029;-52
2021/10/21 02:09:32;;;;;;;5.15;3.33;;;;;;;11.01;100.00;94784.31;1032494;28;20114;-50
2021/10/21 02:10:07;;;;;;;8.40;4.05;;;;;;;11.00;100.00;94782.66;1028548;28;20019;-51
2021/10/21 02:10:38;;;;;;;5.47;3.05;;;;;;;11.03;100.00;94778.94;1029529;28;20022;-50
2021/10/21 02:11:08;;;;;;;7.05;3.50;;;;;;;11.06;100.00;94789.97;1033049;28;20058;-50
2021/10/21 02:11:39;;;;;;;8.23;3.50;;;;;;;10.92;100.00;94789.56;1034452;28;20121;-50
2021/10/21 02:12:10;;;;;;;4.43;3.30;;;;;;;10.88;100.00;94795.06;1032303;28;20022;-51
2021/10/21 02:12:41;;;;;;;6.38;3.47;;;;;;;10.98;100.00;94797.72;1032374;28;20022;-51
2021/10/21 02:13:12;;;;;;;5.32;3.25;;;;;;;10.99;100.00;94794.09;1020064;29;20032;-52
2021/10/21 02:13:43;;;;;;;4.75;3.65;;;;;;;11.03;100.00;94795.47;1024584;29;20548;-52
2021/10/21 02:14:14;;;;;;;4.95;3.30;;;;;;;10.96;100.00;94799.63;1024290;29;20016;-51
2021/10/21 02:14:45;;;;;;;7.10;3.60;;;;;;;10.91;100.00;94807.09;1032590;28;20313;-50
2021/10/21 02:15:16;;;;;;;5.95;3.38;;;;;;;10.92;100.00;94807.91;1032840;28;20029;-50
2021/10/21 02:15:46;;;;;;;5.15;3.20;;;;;;;10.97;100.00;94809.16;1033807;28;20381;-50
2021/10/21 02:16:17;;;;;;;8.65;3.92;;;;;;;10.97;100.00;94792.59;1039970;28;20028;-51
2021/10/21 02:16:47;;;;;;;6.05;3.45;;;;;;;10.98;100.00;94787.22;1031942;28;20105;-50
2021/10/21 02:17:22;;;;;;;5.30;3.47;;;;;;;10.96;100.00;94776.06;1031907;28;20105;-49
2021/10/21 02:17:53;;;;;;;4.90;3.08;;;;;;;11.07;100.00;94760.19;1031653;28;20022;-50
2021/10/21 02:18:24;;;;;;;4.95;2.55;;;;;;;11.26;100.00;94747.97;1033063;28;20026;-50
2021/10/21 02:18:54;;;;;;;5.53;2.45;;;;;;;11.34;100.00;94732.38;1040611;28;20108;-48
2021/10/21 02:19:25;;;;;;;4.78;3.08;;;;;;;11.37;100.00;94723.38;1035921;28;20034;-50
2021/10/21 02:19:56;;;;;;;5.38;2.95;;;;;;;11.40;100.00;94718.69;1032243;28;20472;-50
2021/10/21 02:20:27;;;;;;;5.93;2.85;;;;;;;11.42;100.00;94716.75;1027877;28;20029;-49
2021/10/21 02:20:58;;;;;;;4.88;3.22;;;;;;;11.40;100.00;94716.06;1032237;28;20026;-51
2021/10/21 02:21:28;;;;;;;4.95;2.97;;;;;;;11.43;100.00;94714.94;1032402;28;20022;-50
2021/10/21 02:21:59;;;;;;;7.40;3.13;;;;;;;11.41;100.00;94709.84;1032135;28;20019;-51
2021/10/21 02:22:29;;;;;;;3.80;2.60;;;;;;;11.39;100.00;94717.03;1032548;28;20058;-51
2021/10/21 02:23:00;;;;;;;7.97;3.30;;;;;;;11.36;100.00;94706.84;1040337;28;20130;-50
2021/10/21 02:23:31;;;;;;;4.43;2.85;;;;;;;11.39;100.00;94706.56;1037180;28;20014;-49
2021/10/21 02:24:01;;;;;;;5.05;2.83;;;;;;;11.42;100.00;94698.38;1037278;28;20050;-50
2021/10/21 02:24:32;;;;;;;4.07;2.90;;;;;;;11.35;100.00;94686.81;1037484;28;20424;-50